createdAt,value
2023-04-01T00:06:00.757Z,996.6031488234592
2023-04-01T00:13:53.410Z,996.5908205483025
2023-04-01T00:20:12.159Z,996.5485010515465
2023-04-01T00:26:31.228Z,996.5102976517429
2023-04-01T00:32:50.390Z,996.5046983568805
2023-04-01T00:39:09.623Z,996.501412656582
2023-04-01T00:45:29.399Z,996.4953773492224
2023-04-01T00:51:48.006Z,996.4829131225168
2023-04-01T00:58:07.531Z,996.4841269117276
2023-04-01T01:05:48.904Z,996.535907993808
2023-04-01T01:12:09.297Z,996.562204494027
2023-04-01T01:18:28.341Z,996.5843494503473
2023-04-01T01:24:47.479Z,996.5492996006628
2023-04-01T01:44:24.884Z,996.5435639220192
2023-04-01T01:50:43.922Z,996.5410078642868
2023-04-01T01:57:04.013Z,996.5706809129119
2023-04-01T02:03:23.947Z,996.5833566930849
2023-04-01T02:09:43.273Z,996.6172116752919
2023-04-01T02:18:52.151Z,996.6471178970756
2023-04-01T02:31:00.776Z,996.6875715657685
2023-04-01T02:37:19.805Z,996.7154330450769
2023-04-01T02:48:45.255Z,996.7652093405469
2023-04-01T02:55:03.991Z,996.805757282997
2023-04-01T03:01:22.861Z,996.8341978399693
2023-04-01T03:07:42.485Z,996.8960083847292
2023-04-01T03:16:46.471Z,996.9382541722866
2023-04-01T03:23:06.382Z,996.9361600658929
2023-04-01T03:29:25.695Z,996.9458600758223
2023-04-01T03:47:09.637Z,997.0516375064158
2023-04-01T03:53:28.459Z,997.0918488493971
2023-04-01T03:59:47.745Z,997.1243115356176
2023-04-01T04:06:06.984Z,997.1636032013363
2023-04-01T04:12:26.314Z,997.2004449329532
2023-04-01T04:18:46.231Z,997.2091951761414
2023-04-01T04:25:07.717Z,997.2447659293312
2023-04-01T04:31:26.797Z,997.2855724738596
2023-04-01T04:37:46.072Z,997.3403819884071
2023-04-01T04:48:28.707Z,997.4455001919323
2023-04-01T04:54:48.388Z,997.5039974307491
2023-04-01T05:01:08.067Z,997.5398529742034
2023-04-01T05:16:47.039Z,997.6392068092215
2023-04-01T05:23:06.105Z,997.6744122082986
2023-04-01T05:33:21.366Z,997.7766738296924
2023-04-01T05:39:43.415Z,997.8211947488213
2023-04-01T05:46:05.373Z,997.8837908744913
2023-04-01T05:52:26.518Z,997.9105821895427
2023-04-01T05:58:47.955Z,997.9659366065315
2023-04-01T06:12:15.017Z,998.0613413482006
2023-04-01T06:18:37.430Z,998.1361491632398
2023-04-01T06:25:51.858Z,998.2050014787188
2023-04-01T06:32:13.520Z,998.2815911110723
2023-04-01T06:40:59.172Z,998.3689895544178
2023-04-01T06:47:20.757Z,998.4224035821748
2023-04-01T06:53:42.099Z,998.4705596949775
2023-04-01T07:00:04.216Z,998.4982336780705
2023-04-01T07:06:26.245Z,998.5701270407108
2023-04-01T07:12:47.986Z,998.6381393386796
2023-04-01T07:23:03.942Z,998.7634303059525
2023-04-01T07:29:25.947Z,998.8503392877199
2023-04-01T07:35:47.590Z,998.9462258647329
2023-04-01T07:42:09.528Z,999.0231458268726
2023-04-01T07:48:53.131Z,999.1389492175308
2023-04-01T07:55:15.246Z,999.177421460319
2023-04-01T08:01:36.541Z,999.2184019918494
2023-04-01T08:10:05.387Z,999.308593782502
2023-04-01T08:29:16.912Z,999.53888382426
2023-04-01T08:40:46.900Z,999.6958868394175
2023-04-01T08:47:08.499Z,999.7489981888984
2023-04-01T08:53:33.519Z,999.8248075168141
2023-04-01T08:59:54.930Z,999.8756160622451
2023-04-01T09:10:10.332Z,999.9679635703368
2023-04-01T09:16:32.046Z,1000.0273521453314
2023-04-01T09:22:53.052Z,1000.0732989422783
2023-04-01T09:30:39.959Z,1000.1572341176858
2023-04-01T09:37:01.489Z,1000.2646370111761
2023-04-01T09:43:23.517Z,1000.3097827493947
2023-04-01T09:49:45.655Z,1000.3841375317123
2023-04-01T09:56:07.630Z,1000.4358869290406
2023-04-01T10:02:29.882Z,1000.4902576928188
2023-04-01T10:12:33.098Z,1000.6355303414806
2023-04-01T10:18:56.027Z,1000.7380835491109
2023-04-01T10:25:19.017Z,1000.9078279971
2023-04-01T10:31:41.197Z,1001.0656506405539
2023-04-01T10:38:03.278Z,1001.13707854028
2023-04-01T10:47:43.917Z,1001.2630958524967
2023-04-01T10:54:06.883Z,1001.3999566279132
2023-04-01T11:00:29.281Z,1001.4204297444579
2023-04-01T11:06:51.385Z,1001.4572034488971
2023-04-01T11:13:13.945Z,1001.5834323296212
2023-04-01T11:19:35.507Z,1001.6845761307003
2023-04-01T11:25:57.832Z,1001.8072057589853
2023-04-01T11:32:19.675Z,1001.9838579845098
2023-04-01T11:38:41.793Z,1002.1146144788098
2023-04-01T11:45:03.306Z,1002.2083706302727
2023-04-01T11:58:46.389Z,1002.4273165684397
2023-04-01T12:05:08.494Z,1002.5059680583074
2023-04-01T12:11:29.990Z,1002.5845459717683
2023-04-01T12:17:52.178Z,1002.674500783831
2023-04-01T12:24:14.461Z,1002.7497082685524
2023-04-01T12:35:14.016Z,1002.971251673428
2023-04-01T12:41:36.456Z,1003.0821222044581
2023-04-01T12:47:58.534Z,1003.2105667089055
2023-04-01T12:58:42.222Z,1003.3780263197148
2023-04-01T13:05:03.671Z,1003.4866902497912
2023-04-01T13:11:25.288Z,1003.5486237151341
2023-04-01T13:17:46.969Z,1003.664517569374
2023-04-01T13:24:08.577Z,1003.8013786469515
2023-04-01T13:30:30.492Z,1003.9008374416976
2023-04-01T13:40:42.791Z,1004.0910559585045
2023-04-01T13:47:06.740Z,1004.2281496875923
2023-04-01T13:53:27.811Z,1004.3377364988796
2023-04-01T13:59:49.653Z,1004.4739351041064
2023-04-01T14:07:05.148Z,1004.5850535857633
2023-04-01T14:13:27.658Z,1004.6788778429897
2023-04-01T14:19:50.182Z,1004.8047028205184
2023-04-01T14:26:12.283Z,1004.895849259775
2023-04-01T14:32:35.101Z,1005.0308326748554
2023-04-01T14:39:02.064Z,1005.1536408732088
2023-04-01T14:45:23.923Z,1005.2939718753622
2023-04-01T14:51:48.328Z,1005.3734466163621
2023-04-01T14:58:11.578Z,1005.4722637839196
2023-04-01T15:04:34.627Z,1005.567376050507
2023-04-01T15:10:57.785Z,1005.7183326249393
2023-04-01T15:17:20.372Z,1005.8272503888958
2023-04-01T15:23:43.792Z,1005.9458831591477
2023-04-01T15:34:18.400Z,1006.1604066367203
2023-04-01T15:40:40.910Z,1006.2798462844495
2023-04-01T15:52:16.759Z,1006.5169055234276
2023-04-01T15:58:38.270Z,1006.659025004615
2023-04-01T16:04:59.627Z,1006.7981913547229
2023-04-01T16:19:46.753Z,1007.1368653338689
2023-04-01T16:28:02.076Z,1007.2521724988329
2023-04-01T16:38:27.552Z,1007.4372374505259
2023-04-01T16:44:49.653Z,1007.5810315424225
2023-04-01T16:51:13.984Z,1007.7090583974752
2023-04-01T16:57:36.508Z,1007.8752382044903
2023-04-01T17:10:09.125Z,1008.1957095287931
2023-04-01T17:16:31.015Z,1008.3158692553235
2023-04-01T17:32:03.839Z,1008.6932929104523
2023-04-01T17:38:22.713Z,1008.8954994359718
2023-04-01T17:44:42.462Z,1009.0600383691503
2023-04-01T17:51:29.301Z,1009.1956215054579
2023-04-01T17:57:48.072Z,1009.3087598049435
2023-04-01T18:04:09.623Z,1009.4613815580143
2023-04-01T18:10:29.292Z,1009.6261714966003
2023-04-01T18:19:55.915Z,1009.9087140098522
2023-04-01T18:26:15.751Z,1010.0935240439082
2023-04-01T18:32:35.406Z,1010.2687539070581
2023-04-01T18:50:01.937Z,1010.6388318565356
2023-04-01T19:01:55.425Z,1010.9342368726811
2023-04-01T19:15:06.536Z,1011.2744173290295
2023-04-01T19:21:25.653Z,1011.398159180233
2023-04-01T19:27:44.430Z,1011.5464961150168
2023-04-01T19:39:44.480Z,1011.7494208429672
2023-04-01T19:46:03.478Z,1011.8267053982424
2023-04-01T19:52:24.605Z,1011.9692743988563
2023-04-01T20:00:56.266Z,1012.1659577408748
2023-04-01T20:07:15.483Z,1012.3113004211644
2023-04-01T20:18:35.295Z,1012.5691035237289
2023-04-01T20:24:53.994Z,1012.7561173163986
2023-04-01T20:31:12.462Z,1012.8944457676131
2023-04-01T20:37:31.381Z,1013.0295277225592
2023-04-01T20:43:50.306Z,1013.1334942641
2023-04-01T20:56:12.668Z,1013.3492679881468
2023-04-01T21:02:34.005Z,1013.4589451360968
2023-04-01T21:20:14.293Z,1013.8013986327413
2023-04-01T21:26:35.417Z,1013.93316751966
2023-04-01T21:32:54.012Z,1014.0789982065411
2023-04-01T21:39:13.057Z,1014.2462729404215
2023-04-01T21:45:31.535Z,1014.3625186512445
2023-04-01T21:51:51.286Z,1014.5266559883992
2023-04-01T22:00:14.728Z,1014.6993185278728
2023-04-01T22:06:34.547Z,1014.7979241300761
2023-04-01T22:13:52.454Z,1014.929429200864
2023-04-01T22:20:35.769Z,1015.0589772041411
2023-04-01T22:26:55.334Z,1015.1931322308966
2023-04-01T22:33:15.197Z,1015.3499062841596
2023-04-01T22:39:34.462Z,1015.5141878290434
2023-04-01T22:45:57.205Z,1015.6548422735506
2023-04-01T22:52:16.485Z,1015.7668292963648
2023-04-01T22:59:37.453Z,1015.9288498047529
2023-04-01T23:05:56.392Z,1016.0423009350563
2023-04-01T23:12:14.848Z,1016.1351571693082
2023-04-01T23:18:33.856Z,1016.2135499071903
2023-04-01T23:27:53.770Z,1016.4101456246424
2023-04-01T23:34:12.481Z,1016.5349577420594
2023-04-01T23:42:31.548Z,1016.7271254368658
2023-04-01T23:48:50.080Z,1016.8764425614721
2023-04-01T23:57:05.692Z,1017.0627612796625
